PAUNPAMK

Guest
Details From PAUN - Unalakleet
To PAMK - ST MICHAEL
Flight Number -
Tags generated
Created
Modified
Stats Distance 43 nm / 80 km
Max Altitude 4,100 ft / 1,250 m
Waypoints 3
Social Downloads 1
Likes 0
Share VATSIM

Download

Looking for another format? Having issues loading an existing format? Contact us
Advertisement - Login to hide

Notes

Basic altitude profile: - Ascent Rate: 700ft/min - Ascent Speed: 100kts - Cruise Altitude: 3000ft - Cruise Speed: 125kts - Descent Rate: 1500ft/min - Descent Speed: 125kts Options: - Use NATs: yes - Use PACOTS: yes - Use low airways: yes - Use high airways: yes

Route

PAUN CONFI PAMK

ID Type Via Altitude Latitude Longitude Leg Dist Tot Dist Heading (true) Name
O PAUN APT - 0 ft / 0 m 63.88659˚ -160.79693˚ - 0 nm - Unalakleet
CONFI FIX - 4,100 ft / 1,250 m 63.83524˚ -161.21692˚ 11 nm 11 nm 255° / 254° -
O PAMK APT - 0 ft / 0 m 63.49005˚ -162.11038˚ 31 nm 43 nm 229° / 229° ST MICHAEL

Altitude Profile

Advertisement - Login to hide

PAUN

Details ICAO PAUN (UNK)
Name Unalakleet
Region USA (Alaska)
Timezone America/Anchorage (UTC-8.0)
Stats Elevation 68 ft / 21 m (AMSL)
Location 63.886590° -160.796931°
Runways 2
Magnetic Variation 12.024° E

METAR

PAUN 240356Z AUTO 30011KT 10SM FEW100 09/06 A2966 RMK AO2 SLP046 T00890056

Decode

TAF

PAUN 232336Z 2400/2424 31012KT P6SM VCSH SCT050 SCT120 FM240600 34008KT P6SM BKN200 FM241800 33009KT P6SM SCT200

Decode

Departure Runways

ID Width Length Bearing (true) Bearing (mag) Surface Threshold Offset Overrun Length
15 151 ft / 46 m 5,990 ft / 1,826 m 164.15° 152.13° Asphalt 0 ft / 0 m 499 ft / 152 m
26 79 ft / 24 m 1,993 ft / 608 m 278.43° 266.41° Asphalt 0 ft / 0 m 0 ft / 0 m
33 151 ft / 46 m 5,990 ft / 1,826 m 344.16° 332.14° Asphalt 0 ft / 0 m 0 ft / 0 m
8 79 ft / 24 m 1,993 ft / 608 m 98.42° 86.40° Asphalt 0 ft / 0 m 0 ft / 0 m

PAMK

Details ICAO PAMK (SMK)
Name ST MICHAEL
Region USA (Alaska)
Timezone America/Nome (UTC-8.0)
Stats Elevation 93 ft / 28 m (AMSL)
Location 63.490049° -162.110378°
Runways 1
Magnetic Variation 11.403° E

METAR

PAMK 240356Z AUTO 05005KT 10SM FEW002 BKN070 06/04 A2968 RMK AO2 SLP053 T00610044 $

Decode

TAF

Not found

Destination Runways

ID Width Length Bearing (true) Bearing (mag) Surface Threshold Offset Overrun Length
02 75 ft / 23 m 3,991 ft / 1,216 m 32.86° 21.46° Gravel 0 ft / 0 m 299 ft / 91 m
20 75 ft / 23 m 3,991 ft / 1,216 m 212.87° 201.47° Gravel 0 ft / 0 m 299 ft / 91 m